Time;durP1;ratioP1;P1;durP2;ratioP2;P2;SDS_P1;SDS_P2;PMS_P1;PMS_P2;Temp;Humidity;BMP_temperature;BMP_pressure;BME280_temperature;BME280_humidity;BME280_pressure;Samples;Min_cycle;Max_cycle;Signal;HPM_P1;HPM_P2
2021/09/14 00:02:29;;;;;;;;;;;;;;;;;;5041494;28;19998;-72
2021/09/14 00:05:14;;;;;;;;;;;;;;;;;;5042210;28;19924;-72
2021/09/14 00:07:58;;;;;;;;;;;;;;;;;;5039815;28;20301;-73
2021/09/14 00:10:42;;;;;;;;;;;;;;;;;;5040529;28;19924;-72
2021/09/14 00:13:26;;;;;;;;;;;;;;;;;;5041527;28;20410;-73
2021/09/14 00:16:10;;;;;;;;;;;;;;;;;;5040923;28;19920;-72
2021/09/14 00:18:54;;;;;;;;;;;;;;;;;;5041880;28;19936;-73
2021/09/14 00:21:39;;;;;;;;;;;;;;;;;;5039192;28;19928;-73
2021/09/14 00:24:23;;;;;;;;;;;;;;;;;;5039733;28;19921;-73
2021/09/14 00:27:07;;;;;;;;;;;;;;;;;;5045136;28;19920;-73
2021/09/14 00:29:51;;;;;;;;;;;;;;;;;;5045557;28;19920;-73
2021/09/14 00:32:35;;;;;;;;;;;;;;;;;;5046752;28;19920;-73
2021/09/14 00:35:19;;;;;;;;;;;;;;;;;;5051182;28;19932;-73
2021/09/14 00:38:03;;;;;;;;;;;;;;;;;;5044293;28;20435;-73
2021/09/14 00:40:48;;;;;;;;;;;;;;;;;;5045706;28;19920;-73
2021/09/14 00:43:32;;;;;;;;;;;;;;;;;;5043818;28;19989;-73
2021/09/14 00:46:16;;;;;;;;;;;;;;;;;;5035519;28;19928;-72
2021/09/14 00:49:01;;;;;;;;;;;;;;;;;;5047265;28;19920;-72
2021/09/14 00:51:45;;;;;;;;;;;;;;;;;;5045528;28;19920;-72
2021/09/14 00:54:29;;;;;;;;;;;;;;;;;;5047105;28;19924;-72
2021/09/14 00:57:13;;;;;;;;;;;;;;;;;;5044489;28;20308;-72
2021/09/14 00:59:58;;;;;;;;;;;;;;;;;;5045908;28;20399;-72
2021/09/14 01:02:42;;;;;;;;;;;;;;;;;;5049407;28;20296;-72
2021/09/14 01:05:27;;;;;;;;;;;;;;;;;;5065725;28;19920;-71
2021/09/14 01:08:11;;;;;;;;;;;;;;;;;;5048576;28;20446;-71
2021/09/14 01:10:55;;;;;;;;;;;;;;;;;;5050621;28;19924;-71
2021/09/14 01:13:39;;;;;;;;;;;;;;;;;;5046468;28;19932;-71
2021/09/14 01:16:24;;;;;;;;;;;;;;;;;;5051968;28;19924;-71
2021/09/14 01:19:08;;;;;;;;;;;;;;;;;;5046542;28;20301;-71
2021/09/14 01:21:53;;;;;;;;;;;;;;;;;;5045478;28;19924;-71
2021/09/14 01:24:37;;;;;;;;;;;;;;;;;;5048696;28;19920;-71
2021/09/14 01:27:24;;;;;;;;;;;;;;;;;;5047585;28;20281;-71
2021/09/14 01:30:19;;;;;;;;;;;;;;;;;;5049905;28;19940;-71
2021/09/14 01:33:03;;;;;;;;;;;;;;;;;;5049635;28;19950;-71
2021/09/14 01:35:54;;;;;;;;;;;;;;;;;;5051706;28;19928;-71
2021/09/14 01:38:38;;;;;;;;;;;;;;;;;;5044184;28;20293;-71
2021/09/14 01:41:22;;;;;;;;;;;;;;;;;;5045877;28;20308;-71
2021/09/14 01:44:07;;;;;;;;;;;;;;;;;;5044824;28;19920;-72
2021/09/14 01:46:52;;;;;;;;;;;;;;;;;;5045464;28;20513;-72
2021/09/14 01:49:37;;;;;;;;;;;;;;;;;;5045997;28;19920;-72
2021/09/14 01:52:22;;;;;;;;;;;;;;;;;;5043525;28;19924;-72
2021/09/14 01:55:06;;;;;;;;;;;;;;;;;;5047058;28;20411;-72
2021/09/14 01:57:51;;;;;;;;;;;;;;;;;;5046166;28;20392;-72
2021/09/14 02:00:38;;;;;;;;;;;;;;;;;;5047272;28;20601;-72
2021/09/14 02:58:38;;;;;;;;;;;;;;;;;;5054177;28;19920;-71
2021/09/14 03:01:23;;;;;;;;;;;;;;;;;;5043489;28;19928;-71
2021/09/14 03:04:12;;;;;;;;;;;;;;;;;;5044214;28;19920;-71
2021/09/14 03:06:56;;;;;;;;;;;;;;;;;;5042319;28;19980;-72
2021/09/14 03:09:49;;;;;;;;;;;;;;;;;;5041107;28;19940;-71
2021/09/14 03:12:37;;;;;;;;;;;;;;;;;;5040913;28;20469;-72
2021/09/14 03:15:21;;;;;;;;;;;;;;;;;;5043209;28;19925;-72
2021/09/14 03:18:06;;;;;;;;;;;;;;;;;;5046296;28;19924;-71
2021/09/14 03:20:50;;;;;;;;;;;;;;;;;;5044475;28;19924;-71
2021/09/14 03:23:35;;;;;;;;;;;;;;;;;;5044178;28;19936;-71
2021/09/14 03:26:19;;;;;;;;;;;;;;;;;;5041822;28;20418;-71
2021/09/14 03:29:04;;;;;;;;;;;;;;;;;;5068970;28;19938;-71
2021/09/14 03:31:55;;;;;;;;;;;;;;;;;;5063357;28;19924;-71
2021/09/14 03:34:39;;;;;;;;;;;;;;;;;;5041037;28;19924;-71
2021/09/14 03:37:24;;;;;;;;;;;;;;;;;;5045817;28;19919;-71
2021/09/14 03:40:08;;;;;;;;;;;;;;;;;;5043209;28;19920;-71
2021/09/14 03:42:52;;;;;;;;;;;;;;;;;;5043422;28;19920;-71
2021/09/14 03:45:37;;;;;;;;;;;;;;;;;;5050857;28;19920;-71
2021/09/14 03:48:21;;;;;;;;;;;;;;;;;;5042186;28;19943;-71
2021/09/14 03:51:07;;;;;;;;;;;;;;;;;;5041555;28;19920;-71
2021/09/14 03:53:53;;;;;;;;;;;;;;;;;;5046302;28;19923;-71
2021/09/14 03:56:38;;;;;;;;;;;;;;;;;;5045004;28;19920;-71
2021/09/14 03:59:24;;;;;;;;;;;;;;;;;;5043705;28;19920;-71
2021/09/14 04:02:18;;;;;;;;;;;;;;;;;;5045921;28;19920;-71
2021/09/14 04:05:11;;;;;;;;;;;;;;;;;;5051656;28;19920;-71
2021/09/14 04:10:56;;;;;;;;;;;;;;;;;;5067793;28;20399;-71
2021/09/14 04:13:40;;;;;;;;;;;;;;;;;;5048820;28;19943;-71
2021/09/14 04:16:25;;;;;;;;;;;;;;;;;;5045987;28;20300;-71
2021/09/14 04:19:09;;;;;;;;;;;;;;;;;;5048477;28;20395;-71
2021/09/14 04:21:54;;;;;;;;;;;;;;;;;;5031585;28;20403;-71
2021/09/14 04:24:43;;;;;;;;;;;;;;;;;;5043983;28;19920;-71
2021/09/14 04:27:28;;;;;;;;;;;;;;;;;;5047485;28;19936;-71
2021/09/14 04:30:12;;;;;;;;;;;;;;;;;;5046008;28;19920;-71
2021/09/14 04:32:56;;;;;;;;;;;;;;;;;;5042780;28;19920;-71
2021/09/14 04:35:41;;;;;;;;;;;;;;;;;;5046493;28;19932;-72
2021/09/14 04:38:25;;;;;;;;;;;;;;;;;;5046224;28;19923;-71
2021/09/14 04:41:09;;;;;;;;;;;;;;;;;;5042104;28;19920;-71
2021/09/14 04:43:54;;;;;;;;;;;;;;;;;;5053486;28;20387;-71
2021/09/14 04:46:38;;;;;;;;;;;;;;;;;;5048154;28;20384;-73
2021/09/14 04:49:22;;;;;;;;;;;;;;;;;;5053013;28;19920;-71
2021/09/14 04:52:07;;;;;;;;;;;;;;;;;;5051871;28;19920;-69
2021/09/14 04:54:51;;;;;;;;;;;;;;;;;;5046451;28;19947;-69
2021/09/14 04:57:35;;;;;;;;;;;;;;;;;;5046418;28;19920;-70
2021/09/14 05:00:21;;;;;;;;;;;;;;;;;;5048070;28;19928;-69
2021/09/14 05:03:05;;;;;;;;;;;;;;;;;;5045607;28;19928;-69
2021/09/14 05:05:49;;;;;;;;;;;;;;;;;;5046686;28;19920;-69
2021/09/14 05:08:34;;;;;;;;;;;;;;;;;;5042807;28;20407;-70
2021/09/14 05:11:19;;;;;;;;;;;;;;;;;;5048827;28;19920;-69
2021/09/14 05:14:04;;;;;;;;;;;;;;;;;;5029513;28;19924;-69
2021/09/14 05:16:53;;;;;;;;;;;;;;;;;;5042607;28;19920;-71
2021/09/14 05:20:00;;;;;;;;;;;;;;;;;;5047420;28;19995;-70
2021/09/14 05:22:49;;;;;;;;;;;;;;;;;;5044198;28;19975;-70
2021/09/14 05:25:33;;;;;;;;;;;;;;;;;;5043007;28;19928;-68
2021/09/14 05:28:17;;;;;;;;;;;;;;;;;;5043745;28;19920;-67
2021/09/14 05:31:01;;;;;;;;;;;;;;;;;;5043332;28;19996;-67
2021/09/14 05:33:46;;;;;;;;;;;;;;;;;;5048461;28;19920;-67
2021/09/14 05:36:30;;;;;;;;;;;;;;;;;;5034123;28;19920;-66
2021/09/14 05:39:14;;;;;;;;;;;;;;;;;;5043837;28;19992;-67
2021/09/14 05:41:59;;;;;;;;;;;;;;;;;;5043311;28;20385;-66
2021/09/14 05:44:43;;;;;;;;;;;;;;;;;;5048484;28;19920;-66
2021/09/14 05:47:29;;;;;;;;;;;;;;;;;;5045569;28;19920;-67
2021/09/14 05:50:13;;;;;;;;;;;;;;;;;;5043214;28;19920;-67
2021/09/14 05:52:59;;;;;;;;;;;;;;;;;;5047732;28;19920;-67
2021/09/14 05:55:44;;;;;;;;;;;;;;;;;;5032120;28;19924;-67
2021/09/14 05:58:31;;;;;;;;;;;;;;;;;;5046591;28;19920;-65
2021/09/14 06:01:16;;;;;;;;;;;;;;;;;;5053941;28;19920;-65
2021/09/14 06:04:00;;;;;;;;;;;;;;;;;;5051223;28;19920;-65
2021/09/14 06:06:45;;;;;;;;;;;;;;;;;;5038931;28;19924;-65
2021/09/14 06:09:31;;;;;;;;;;;;;;;;;;5054779;28;19939;-65
2021/09/14 06:12:15;;;;;;;;;;;;;;;;;;5059244;28;19932;-66
2021/09/14 06:15:00;;;;;;;;;;;;;;;;;;5059208;28;19924;-66
2021/09/14 06:17:45;;;;;;;;;;;;;;;;;;5055756;28;20282;-66
2021/09/14 06:20:29;;;;;;;;;;;;;;;;;;5039007;28;19920;-65
2021/09/14 06:23:13;;;;;;;;;;;;;;;;;;5039158;28;19920;-65
2021/09/14 06:25:57;;;;;;;;;;;;;;;;;;5058027;28;19920;-65
2021/09/14 06:28:42;;;;;;;;;;;;;;;;;;5038003;28;19928;-66
2021/09/14 06:31:26;;;;;;;;;;;;;;;;;;5047106;28;19920;-66
2021/09/14 06:34:10;;;;;;;;;;;;;;;;;;5045460;28;20406;-66
2021/09/14 06:36:54;;;;;;;;;;;;;;;;;;5057879;28;19920;-65
2021/09/14 06:39:38;;;;;;;;;;;;;;;;;;5044118;28;19971;-66
2021/09/14 06:42:25;;;;;;;;;;;;;;;;;;5038861;28;19920;-66
2021/09/14 06:45:13;;;;;;;;;;;;;;;;;;5038642;28;20297;-66
2021/09/14 06:48:16;;;;;;;;;;;;;;;;;;5038268;28;20399;-65
2021/09/14 06:51:00;;;;;;;;;;;;;;;;;;5047413;28;19920;-66
2021/09/14 06:53:45;;;;;;;;;;;;;;;;;;5043235;28;19944;-65
2021/09/14 06:56:29;;;;;;;;;;;;;;;;;;5044345;28;19919;-66
2021/09/14 06:59:13;;;;;;;;;;;;;;;;;;5037303;28;19921;-66
2021/09/14 07:01:57;;;;;;;;;;;;;;;;;;5040982;28;19920;-66
2021/09/14 07:04:42;;;;;;;;;;;;;;;;;;5051906;28;19920;-66
2021/09/14 07:07:26;;;;;;;;;;;;;;;;;;5052215;28;19920;-66
2021/09/14 07:10:10;;;;;;;;;;;;;;;;;;5047359;28;20399;-66
2021/09/14 07:12:54;;;;;;;;;;;;;;;;;;5050623;28;19920;-66
2021/09/14 07:15:38;;;;;;;;;;;;;;;;;;5039203;28;19940;-66
2021/09/14 07:18:22;;;;;;;;;;;;;;;;;;5040908;28;20288;-66
2021/09/14 07:21:06;;;;;;;;;;;;;;;;;;5041013;28;20289;-66
2021/09/14 07:23:50;;;;;;;;;;;;;;;;;;5042385;28;19920;-69
2021/09/14 07:26:35;;;;;;;;;;;;;;;;;;5042816;28;19924;-69
2021/09/14 07:29:20;;;;;;;;;;;;;;;;;;5042926;28;20293;-69
2021/09/14 07:32:04;;;;;;;;;;;;;;;;;;5040620;28;19920;-69
2021/09/14 07:34:49;;;;;;;;;;;;;;;;;;5043071;28;20384;-69
2021/09/14 07:37:33;;;;;;;;;;;;;;;;;;5045036;28;20384;-68
2021/09/14 07:40:17;;;;;;;;;;;;;;;;;;5047391;28;20380;-68
2021/09/14 07:43:03;;;;;;;;;;;;;;;;;;5046968;28;19920;-68
2021/09/14 07:45:47;;;;;;;;;;;;;;;;;;5045202;28;19921;-68
2021/09/14 07:48:31;;;;;;;;;;;;;;;;;;5045614;28;19949;-68
2021/09/14 07:51:16;;;;;;;;;;;;;;;;;;5046008;28;19928;-68
2021/09/14 07:54:00;;;;;;;;;;;;;;;;;;5046816;28;20281;-68
2021/09/14 07:56:44;;;;;;;;;;;;;;;;;;5046659;28;19923;-68
2021/09/14 07:59:28;;;;;;;;;;;;;;;;;;5050491;28;19928;-68
2021/09/14 08:02:12;;;;;;;;;;;;;;;;;;5048428;28;19919;-68
2021/09/14 08:04:56;;;;;;;;;;;;;;;;;;5045933;28;19963;-68
2021/09/14 08:07:41;;;;;;;;;;;;;;;;;;5053488;28;19920;-68
2021/09/14 08:10:25;;;;;;;;;;;;;;;;;;5052361;28;19928;-68
2021/09/14 08:13:09;;;;;;;;;;;;;;;;;;5053688;28;20285;-68
2021/09/14 08:15:53;;;;;;;;;;;;;;;;;;5049167;28;19931;-68
2021/09/14 08:18:37;;;;;;;;;;;;;;;;;;5046243;28;19920;-68
2021/09/14 08:21:23;;;;;;;;;;;;;;;;;;5044041;28;20301;-68
2021/09/14 08:24:09;;;;;;;;;;;;;;;;;;5044059;28;19935;-68
2021/09/14 08:26:53;;;;;;;;;;;;;;;;;;5044932;28;19936;-68
2021/09/14 08:29:37;;;;;;;;;;;;;;;;;;5046050;28;20292;-68
2021/09/14 08:32:21;;;;;;;;;;;;;;;;;;5046637;28;20304;-68
2021/09/14 08:35:05;;;;;;;;;;;;;;;;;;5045577;28;20288;-68
2021/09/14 08:37:50;;;;;;;;;;;;;;;;;;5044356;28;19919;-68
2021/09/14 08:40:34;;;;;;;;;;;;;;;;;;5044965;28;19920;-68
2021/09/14 08:43:19;;;;;;;;;;;;;;;;;;5044056;28;20308;-68
2021/09/14 08:46:04;;;;;;;;;;;;;;;;;;5051105;28;19950;-68
2021/09/14 08:48:49;;;;;;;;;;;;;;;;;;5046096;28;19920;-68
2021/09/14 08:51:33;;;;;;;;;;;;;;;;;;5046401;28;19936;-68
2021/09/14 08:54:17;;;;;;;;;;;;;;;;;;5050745;28;20004;-68
2021/09/14 08:57:02;;;;;;;;;;;;;;;;;;5049169;28;19928;-68
2021/09/14 08:59:49;;;;;;;;;;;;;;;;;;5048682;28;19920;-68
2021/09/14 09:02:33;;;;;;;;;;;;;;;;;;5049619;28;19920;-68
2021/09/14 09:05:17;;;;;;;;;;;;;;;;;;5050550;28;19919;-68
2021/09/14 09:08:02;;;;;;;;;;;;;;;;;;5047576;28;19921;-68
2021/09/14 09:10:45;;;;;;;;;;;;;;;;;;5045501;28;20419;-69
2021/09/14 09:13:30;;;;;;;;;;;;;;;;;;5043862;28;19920;-68
2021/09/14 09:16:14;;;;;;;;;;;;;;;;;;5045395;28;19925;-68
2021/09/14 09:18:58;;;;;;;;;;;;;;;;;;5044693;28;19920;-68
2021/09/14 09:21:42;;;;;;;;;;;;;;;;;;5044910;28;20349;-68
2021/09/14 09:24:26;;;;;;;;;;;;;;;;;;5045054;28;20316;-68
2021/09/14 09:27:11;;;;;;;;;;;;;;;;;;5044258;28;19920;-68
2021/09/14 09:29:55;;;;;;;;;;;;;;;;;;5043924;28;19920;-68
2021/09/14 09:32:39;;;;;;;;;;;;;;;;;;5043163;28;19936;-68
2021/09/14 09:35:23;;;;;;;;;;;;;;;;;;5043893;28;19928;-68
2021/09/14 09:38:07;;;;;;;;;;;;;;;;;;5051596;28;19924;-68
2021/09/14 09:40:52;;;;;;;;;;;;;;;;;;5042435;28;19920;-68
2021/09/14 09:43:37;;;;;;;;;;;;;;;;;;5043551;28;19940;-68
2021/09/14 09:46:22;;;;;;;;;;;;;;;;;;5042658;28;19920;-68
2021/09/14 09:49:06;;;;;;;;;;;;;;;;;;5042700;28;20296;-69
2021/09/14 09:51:50;;;;;;;;;;;;;;;;;;5047142;28;19920;-68
2021/09/14 09:54:34;;;;;;;;;;;;;;;;;;5043734;28;19975;-68
2021/09/14 09:57:18;;;;;;;;;;;;;;;;;;5042744;28;19920;-69
2021/09/14 10:00:07;;;;;;;;;;;;;;;;;;5044862;28;19920;-68
2021/09/14 10:02:56;;;;;;;;;;;;;;;;;;5043895;28;19924;-68
2021/09/14 10:05:40;;;;;;;;;;;;;;;;;;5044116;28;19936;-69
2021/09/14 10:08:24;;;;;;;;;;;;;;;;;;5052179;28;19919;-69
2021/09/14 10:11:09;;;;;;;;;;;;;;;;;;5043573;28;19920;-69
2021/09/14 10:13:53;;;;;;;;;;;;;;;;;;5046338;28;19920;-69
2021/09/14 10:16:39;;;;;;;;;;;;;;;;;;5041740;28;20411;-69
2021/09/14 10:19:23;;;;;;;;;;;;;;;;;;5047129;28;19920;-69
2021/09/14 10:22:07;;;;;;;;;;;;;;;;;;5045638;28;19920;-68
2021/09/14 10:24:52;;;;;;;;;;;;;;;;;;5047911;28;19920;-69
2021/09/14 10:27:36;;;;;;;;;;;;;;;;;;5052706;28;19924;-69
2021/09/14 10:30:20;;;;;;;;;;;;;;;;;;5043909;28;19920;-69
2021/09/14 10:33:05;;;;;;;;;;;;;;;;;;5044872;28;19920;-69
2021/09/14 10:35:50;;;;;;;;;;;;;;;;;;5042069;28;19975;-69
2021/09/14 10:38:34;;;;;;;;;;;;;;;;;;5043214;28;19924;-69
2021/09/14 10:41:18;;;;;;;;;;;;;;;;;;5043510;28;19923;-69
2021/09/14 10:44:03;;;;;;;;;;;;;;;;;;5043223;28;20284;-68
2021/09/14 10:46:47;;;;;;;;;;;;;;;;;;5042549;28;19952;-69
2021/09/14 10:49:32;;;;;;;;;;;;;;;;;;5041930;28;19919;-69
2021/09/14 10:52:16;;;;;;;;;;;;;;;;;;5041313;28;20404;-69
2021/09/14 10:55:00;;;;;;;;;;;;;;;;;;5041199;28;19940;-68
2021/09/14 10:57:44;;;;;;;;;;;;;;;;;;5041916;28;19921;-69
2021/09/14 11:00:28;;;;;;;;;;;;;;;;;;5042407;28;19920;-68
2021/09/14 11:03:12;;;;;;;;;;;;;;;;;;5045032;28;19920;-69
2021/09/14 11:05:57;;;;;;;;;;;;;;;;;;5048185;28;19920;-69
2021/09/14 11:08:45;;;;;;;;;;;;;;;;;;5049914;28;19948;-69
2021/09/14 11:11:29;;;;;;;;;;;;;;;;;;5046834;28;19920;-69
2021/09/14 11:14:13;;;;;;;;;;;;;;;;;;5042708;28;19932;-68
2021/09/14 11:16:57;;;;;;;;;;;;;;;;;;5044252;28;19924;-68
2021/09/14 11:19:41;;;;;;;;;;;;;;;;;;5048386;28;19927;-68
2021/09/14 11:22:26;;;;;;;;;;;;;;;;;;5040837;28;19920;-68
2021/09/14 11:25:10;;;;;;;;;;;;;;;;;;5041587;28;19920;-68
2021/09/14 11:27:55;;;;;;;;;;;;;;;;;;5041003;28;19920;-68
2021/09/14 11:30:40;;;;;;;;;;;;;;;;;;5040597;28;19920;-68
2021/09/14 11:33:24;;;;;;;;;;;;;;;;;;5045183;28;20281;-68
2021/09/14 11:36:08;;;;;;;;;;;;;;;;;;5041954;28;19924;-68
2021/09/14 11:38:52;;;;;;;;;;;;;;;;;;5042398;28;20513;-69
2021/09/14 11:41:37;;;;;;;;;;;;;;;;;;5042636;28;19919;-68
2021/09/14 11:44:21;;;;;;;;;;;;;;;;;;5042767;28;20284;-69
2021/09/14 11:47:05;;;;;;;;;;;;;;;;;;5041952;28;20034;-69
2021/09/14 11:49:49;;;;;;;;;;;;;;;;;;5041551;28;20447;-69
2021/09/14 11:52:34;;;;;;;;;;;;;;;;;;5040822;28;19936;-70
2021/09/14 11:55:18;;;;;;;;;;;;;;;;;;5037654;28;20416;-68
2021/09/14 11:58:04;;;;;;;;;;;;;;;;;;5032285;28;19920;-68
2021/09/14 12:00:48;;;;;;;;;;;;;;;;;;5032212;28;20396;-68
2021/09/14 12:03:32;;;;;;;;;;;;;;;;;;5032255;28;19920;-68
2021/09/14 12:06:16;;;;;;;;;;;;;;;;;;5032152;28;19924;-68
2021/09/14 12:09:01;;;;;;;;;;;;;;;;;;5032074;28;19924;-68
2021/09/14 12:11:45;;;;;;;;;;;;;;;;;;5036195;28;19920;-68
2021/09/14 12:14:29;;;;;;;;;;;;;;;;;;5052008;28;19935;-67
2021/09/14 12:17:13;;;;;;;;;;;;;;;;;;5046921;28;19920;-68
2021/09/14 12:19:57;;;;;;;;;;;;;;;;;;5040490;28;19920;-68
2021/09/14 12:22:41;;;;;;;;;;;;;;;;;;5051980;28;19919;-68
2021/09/14 12:25:25;;;;;;;;;;;;;;;;;;5039416;28;19984;-68
2021/09/14 12:28:10;;;;;;;;;;;;;;;;;;5047855;28;19927;-68
2021/09/14 12:30:54;;;;;;;;;;;;;;;;;;5055645;28;20300;-68
2021/09/14 12:33:38;;;;;;;;;;;;;;;;;;5055541;28;20289;-68
2021/09/14 12:36:22;;;;;;;;;;;;;;;;;;5054192;28;19924;-69
2021/09/14 12:39:06;;;;;;;;;;;;;;;;;;5047935;28;19923;-68
2021/09/14 12:41:51;;;;;;;;;;;;;;;;;;5046566;28;19920;-68
2021/09/14 12:44:35;;;;;;;;;;;;;;;;;;5045922;28;19921;-69
2021/09/14 12:47:19;;;;;;;;;;;;;;;;;;5048612;28;20304;-71
2021/09/14 12:50:03;;;;;;;;;;;;;;;;;;5049549;28;19920;-68
2021/09/14 12:52:47;;;;;;;;;;;;;;;;;;5039552;28;19920;-68
2021/09/14 12:55:31;;;;;;;;;;;;;;;;;;5037759;28;20400;-67
2021/09/14 12:58:15;;;;;;;;;;;;;;;;;;5048445;28;19928;-68
2021/09/14 13:01:00;;;;;;;;;;;;;;;;;;5048385;28;19920;-68
2021/09/14 13:03:44;;;;;;;;;;;;;;;;;;5041600;28;19920;-67
2021/09/14 13:06:28;;;;;;;;;;;;;;;;;;5046607;28;19920;-68
2021/09/14 13:09:13;;;;;;;;;;;;;;;;;;5054670;28;19924;-69
2021/09/14 13:11:57;;;;;;;;;;;;;;;;;;5049322;28;20014;-67
2021/09/14 13:17:45;;;;;;;;;;;;;;;;;;5041417;28;20056;-68
2021/09/14 13:20:30;;;;;;;;;;;;;;;;;;5040074;28;20297;-68
2021/09/14 13:23:14;;;;;;;;;;;;;;;;;;5035026;28;19920;-68
2021/09/14 13:25:58;;;;;;;;;;;;;;;;;;5054611;28;19920;-68
2021/09/14 13:28:42;;;;;;;;;;;;;;;;;;5040577;28;19920;-68
2021/09/14 13:31:26;;;;;;;;;;;;;;;;;;5042144;28;19921;-68
2021/09/14 13:34:10;;;;;;;;;;;;;;;;;;5045714;28;19963;-68
2021/09/14 13:36:55;;;;;;;;;;;;;;;;;;5047899;28;19924;-68
2021/09/14 13:39:39;;;;;;;;;;;;;;;;;;5039003;28;19920;-68
2021/09/14 13:42:25;;;;;;;;;;;;;;;;;;5037691;28;19920;-68
2021/09/14 13:48:12;;;;;;;;;;;;;;;;;;5046849;28;19919;-68
2021/09/14 13:50:56;;;;;;;;;;;;;;;;;;5048728;28;19996;-68
2021/09/14 13:53:42;;;;;;;;;;;;;;;;;;5045696;28;19920;-68
2021/09/14 13:56:28;;;;;;;;;;;;;;;;;;5041437;28;19924;-68
2021/09/14 13:59:13;;;;;;;;;;;;;;;;;;5040268;28;19920;-68
2021/09/14 14:01:57;;;;;;;;;;;;;;;;;;5054033;28;19920;-68
2021/09/14 14:04:41;;;;;;;;;;;;;;;;;;5053812;28;19919;-68
2021/09/14 14:07:25;;;;;;;;;;;;;;;;;;5053701;28;20404;-68
2021/09/14 14:10:09;;;;;;;;;;;;;;;;;;5053603;28;19924;-68
2021/09/14 14:12:54;;;;;;;;;;;;;;;;;;5054034;28;19920;-68
2021/09/14 14:15:38;;;;;;;;;;;;;;;;;;5038337;28;20293;-68
2021/09/14 14:18:23;;;;;;;;;;;;;;;;;;5035129;28;20289;-68
2021/09/14 14:21:07;;;;;;;;;;;;;;;;;;5053446;28;19920;-68
2021/09/14 14:23:51;;;;;;;;;;;;;;;;;;5045236;28;19920;-68
2021/09/14 14:26:35;;;;;;;;;;;;;;;;;;5053381;28;20408;-68
2021/09/14 14:29:19;;;;;;;;;;;;;;;;;;5053412;28;19916;-68
2021/09/14 14:32:03;;;;;;;;;;;;;;;;;;5053298;28;19920;-68
2021/09/14 14:34:47;;;;;;;;;;;;;;;;;;5051703;28;19920;-68
2021/09/14 14:37:31;;;;;;;;;;;;;;;;;;5033447;28;19920;-68
2021/09/14 14:40:16;;;;;;;;;;;;;;;;;;5033338;28;19924;-68
2021/09/14 14:43:00;;;;;;;;;;;;;;;;;;5044531;28;19920;-68
2021/09/14 14:45:44;;;;;;;;;;;;;;;;;;5053137;28;19919;-68
2021/09/14 14:48:29;;;;;;;;;;;;;;;;;;5032270;28;20396;-68
2021/09/14 14:51:13;;;;;;;;;;;;;;;;;;5033156;28;19920;-68
2021/09/14 14:53:57;;;;;;;;;;;;;;;;;;5033136;28;20396;-68
2021/09/14 14:56:41;;;;;;;;;;;;;;;;;;5032858;28;19940;-68
2021/09/14 14:59:25;;;;;;;;;;;;;;;;;;5032989;28;19920;-68
2021/09/14 15:02:09;;;;;;;;;;;;;;;;;;5032824;28;19936;-68
2021/09/14 15:04:54;;;;;;;;;;;;;;;;;;5035552;28;19920;-68
2021/09/14 15:07:38;;;;;;;;;;;;;;;;;;5038473;28;20364;-68
2021/09/14 15:10:23;;;;;;;;;;;;;;;;;;5051219;28;20407;-68
2021/09/14 15:13:07;;;;;;;;;;;;;;;;;;5052541;28;19920;-68
2021/09/14 15:15:52;;;;;;;;;;;;;;;;;;5052652;28;19924;-68
2021/09/14 15:18:36;;;;;;;;;;;;;;;;;;5044193;28;19920;-68
2021/09/14 15:21:20;;;;;;;;;;;;;;;;;;5041363;28;19936;-68
2021/09/14 15:24:05;;;;;;;;;;;;;;;;;;5052505;28;19920;-68
2021/09/14 15:26:51;;;;;;;;;;;;;;;;;;5042343;28;20403;-68
2021/09/14 15:29:36;;;;;;;;;;;;;;;;;;5032520;28;20399;-68
2021/09/14 15:32:20;;;;;;;;;;;;;;;;;;5041290;28;19920;-68
2021/09/14 15:35:05;;;;;;;;;;;;;;;;;;5052402;28;19924;-68
2021/09/14 15:37:50;;;;;;;;;;;;;;;;;;5032555;28;19921;-68
2021/09/14 15:40:34;;;;;;;;;;;;;;;;;;5032671;28;19920;-68
2021/09/14 15:43:20;;;;;;;;;;;;;;;;;;5032395;28;19920;-68
2021/09/14 15:46:04;;;;;;;;;;;;;;;;;;5033001;28;19920;-68
2021/09/14 15:48:48;;;;;;;;;;;;;;;;;;5033776;28;19920;-68
2021/09/14 15:51:32;;;;;;;;;;;;;;;;;;5052290;28;20387;-68
2021/09/14 15:54:17;;;;;;;;;;;;;;;;;;5052214;28;19928;-69
2021/09/14 15:57:01;;;;;;;;;;;;;;;;;;5034779;28;19924;-68
2021/09/14 15:59:45;;;;;;;;;;;;;;;;;;5033937;28;19921;-68
2021/09/14 16:02:29;;;;;;;;;;;;;;;;;;5036142;28;19920;-68
2021/09/14 16:05:13;;;;;;;;;;;;;;;;;;5046260;28;19920;-68
2021/09/14 16:07:57;;;;;;;;;;;;;;;;;;5057656;28;20391;-68
2021/09/14 16:10:41;;;;;;;;;;;;;;;;;;5055922;28;20423;-68
2021/09/14 16:13:26;;;;;;;;;;;;;;;;;;5055869;28;19939;-68
2021/09/14 16:16:10;;;;;;;;;;;;;;;;;;5050248;28;19924;-69
2021/09/14 16:18:54;;;;;;;;;;;;;;;;;;5047826;28;19920;-68
2021/09/14 16:21:38;;;;;;;;;;;;;;;;;;5050071;28;20279;-68
2021/09/14 16:24:22;;;;;;;;;;;;;;;;;;5036639;28;19920;-68
2021/09/14 16:27:08;;;;;;;;;;;;;;;;;;5045118;28;20288;-68
2021/09/14 16:29:53;;;;;;;;;;;;;;;;;;5055728;28;19936;-68
2021/09/14 16:32:38;;;;;;;;;;;;;;;;;;5055139;28;19920;-68
2021/09/14 16:35:23;;;;;;;;;;;;;;;;;;5048948;28;19925;-68
2021/09/14 16:38:07;;;;;;;;;;;;;;;;;;5035305;28;19936;-68
2021/09/14 16:40:51;;;;;;;;;;;;;;;;;;5040016;28;19946;-69
2021/09/14 16:43:35;;;;;;;;;;;;;;;;;;5055170;28;19919;-69
2021/09/14 16:46:20;;;;;;;;;;;;;;;;;;5054326;28;19928;-68
2021/09/14 16:49:04;;;;;;;;;;;;;;;;;;5055403;28;19920;-69
2021/09/14 16:51:48;;;;;;;;;;;;;;;;;;5052981;28;20391;-68
2021/09/14 16:54:32;;;;;;;;;;;;;;;;;;5053841;28;20662;-69
2021/09/14 16:57:17;;;;;;;;;;;;;;;;;;5051475;28;19928;-68
2021/09/14 17:00:02;;;;;;;;;;;;;;;;;;5044715;28;20320;-69
2021/09/14 17:02:47;;;;;;;;;;;;;;;;;;5046092;28;20403;-69
2021/09/14 17:05:31;;;;;;;;;;;;;;;;;;5035161;28;20308;-69
2021/09/14 17:08:15;;;;;;;;;;;;;;;;;;5052586;28;19939;-69
2021/09/14 17:11:00;;;;;;;;;;;;;;;;;;5043265;28;20407;-69
2021/09/14 17:13:44;;;;;;;;;;;;;;;;;;5038999;28;19924;-69
2021/09/14 17:16:29;;;;;;;;;;;;;;;;;;5044116;28;19931;-70
2021/09/14 17:19:13;;;;;;;;;;;;;;;;;;5043211;28;19924;-69
2021/09/14 17:21:58;;;;;;;;;;;;;;;;;;5041752;28;20414;-71
2021/09/14 17:24:42;;;;;;;;;;;;;;;;;;5025901;28;19919;-74
2021/09/14 17:27:28;;;;;;;;;;;;;;;;;;5054928;28;19923;-73
2021/09/14 17:30:12;;;;;;;;;;;;;;;;;;5047287;28;19928;-70
2021/09/14 17:32:57;;;;;;;;;;;;;;;;;;5044430;28;19923;-71
2021/09/14 17:35:41;;;;;;;;;;;;;;;;;;5041040;28;19928;-71
2021/09/14 17:38:25;;;;;;;;;;;;;;;;;;5045066;28;19924;-67
2021/09/14 17:41:09;;;;;;;;;;;;;;;;;;5041366;28;19931;-66
2021/09/14 17:43:53;;;;;;;;;;;;;;;;;;5041631;28;19924;-66
2021/09/14 17:46:38;;;;;;;;;;;;;;;;;;5044364;28;19943;-66
2021/09/14 17:49:22;;;;;;;;;;;;;;;;;;5043674;28;19923;-66
2021/09/14 17:52:06;;;;;;;;;;;;;;;;;;5046074;28;19928;-67
2021/09/14 17:54:50;;;;;;;;;;;;;;;;;;5043573;28;20296;-66
2021/09/14 17:57:35;;;;;;;;;;;;;;;;;;5049563;28;19927;-73
2021/09/14 18:00:19;;;;;;;;;;;;;;;;;;5056767;28;19924;-72
2021/09/14 18:03:04;;;;;;;;;;;;;;;;;;5050585;28;19939;-72
2021/09/14 18:05:48;;;;;;;;;;;;;;;;;;5045445;28;19924;-72
2021/09/14 18:08:32;;;;;;;;;;;;;;;;;;5042940;28;20431;-73
2021/09/14 18:11:17;;;;;;;;;;;;;;;;;;5046226;28;19928;-71
2021/09/14 18:14:01;;;;;;;;;;;;;;;;;;5048340;28;20010;-72
2021/09/14 18:16:45;;;;;;;;;;;;;;;;;;5041977;28;19924;-72
2021/09/14 18:19:30;;;;;;;;;;;;;;;;;;5043527;28;19924;-71
2021/09/14 18:22:14;;;;;;;;;;;;;;;;;;5039282;28;19944;-71
2021/09/14 18:24:58;;;;;;;;;;;;;;;;;;5043876;28;20308;-72
2021/09/14 18:27:43;;;;;;;;;;;;;;;;;;5041790;28;19923;-71
2021/09/14 18:30:27;;;;;;;;;;;;;;;;;;5040731;28;19924;-73
2021/09/14 18:33:11;;;;;;;;;;;;;;;;;;5040559;28;19925;-72
2021/09/14 18:35:56;;;;;;;;;;;;;;;;;;5039170;28;19927;-71
2021/09/14 18:38:41;;;;;;;;;;;;;;;;;;5040808;28;20259;-71
2021/09/14 18:41:25;;;;;;;;;;;;;;;;;;5040487;28;19924;-72
2021/09/14 18:44:09;;;;;;;;;;;;;;;;;;5039030;28;20293;-71
2021/09/14 18:46:54;;;;;;;;;;;;;;;;;;5043849;28;20328;-71
2021/09/14 18:49:38;;;;;;;;;;;;;;;;;;5040046;28;19928;-72
2021/09/14 18:52:23;;;;;;;;;;;;;;;;;;5043874;28;19924;-71
2021/09/14 18:55:07;;;;;;;;;;;;;;;;;;5039095;28;19928;-71
2021/09/14 18:57:51;;;;;;;;;;;;;;;;;;5039516;28;19927;-71
2021/09/14 19:00:38;;;;;;;;;;;;;;;;;;5045807;28;19987;-71
2021/09/14 19:03:22;;;;;;;;;;;;;;;;;;5038546;28;19923;-71
2021/09/14 19:06:07;;;;;;;;;;;;;;;;;;5038087;28;19943;-72
2021/09/14 19:08:52;;;;;;;;;;;;;;;;;;5039523;28;19963;-71
2021/09/14 19:11:38;;;;;;;;;;;;;;;;;;5040554;28;19928;-71
2021/09/14 19:14:22;;;;;;;;;;;;;;;;;;5039840;28;19925;-71
2021/09/14 19:17:07;;;;;;;;;;;;;;;;;;5037908;28;20430;-71
2021/09/14 19:19:51;;;;;;;;;;;;;;;;;;5034506;28;19924;-72
2021/09/14 19:22:35;;;;;;;;;;;;;;;;;;5039402;28;19924;-72
2021/09/14 19:25:19;;;;;;;;;;;;;;;;;;5038466;28;19924;-71
2021/09/14 19:28:04;;;;;;;;;;;;;;;;;;5037978;28;19924;-72
2021/09/14 19:30:48;;;;;;;;;;;;;;;;;;5041663;28;20399;-73
2021/09/14 19:33:32;;;;;;;;;;;;;;;;;;5037360;28;19932;-72
2021/09/14 19:36:17;;;;;;;;;;;;;;;;;;5041699;28;19932;-72
2021/09/14 19:39:01;;;;;;;;;;;;;;;;;;5042787;28;19991;-71
2021/09/14 19:41:46;;;;;;;;;;;;;;;;;;5040352;28;19924;-72
2021/09/14 19:44:30;;;;;;;;;;;;;;;;;;5040953;28;20648;-71
2021/09/14 19:47:15;;;;;;;;;;;;;;;;;;5042858;28;19924;-71
2021/09/14 19:50:01;;;;;;;;;;;;;;;;;;5043383;28;19923;-71